sensor_id;sensor_type;location;lat;lon;timestamp;P1;durP1;ratioP1;P2;durP2;ratioP2
27847;SDS011;15212;48.830;8.730;2023-04-09T00:00:17;25.20;;;13.88;;
27847;SDS011;15212;48.830;8.730;2023-04-09T00:02:46;27.67;;;15.48;;
27847;SDS011;15212;48.830;8.730;2023-04-09T00:05:14;24.05;;;15.48;;
27847;SDS011;15212;48.830;8.730;2023-04-09T00:07:42;27.58;;;14.18;;
27847;SDS011;15212;48.830;8.730;2023-04-09T00:10:11;27.17;;;16.30;;
27847;SDS011;15212;48.830;8.730;2023-04-09T00:12:39;30.82;;;15.03;;
27847;SDS011;15212;48.830;8.730;2023-04-09T00:15:08;24.85;;;15.55;;
27847;SDS011;15212;48.830;8.730;2023-04-09T00:17:36;28.77;;;16.32;;
27847;SDS011;15212;48.830;8.730;2023-04-09T00:20:05;23.92;;;15.05;;
27847;SDS011;15212;48.830;8.730;2023-04-09T00:22:34;27.15;;;14.83;;
27847;SDS011;15212;48.830;8.730;2023-04-09T00:25:02;26.30;;;14.90;;
27847;SDS011;15212;48.830;8.730;2023-04-09T00:27:31;28.73;;;15.70;;
27847;SDS011;15212;48.830;8.730;2023-04-09T00:30:00;25.95;;;15.50;;
27847;SDS011;15212;48.830;8.730;2023-04-09T00:32:28;27.62;;;15.65;;
27847;SDS011;15212;48.830;8.730;2023-04-09T00:34:56;22.90;;;14.03;;
27847;SDS011;15212;48.830;8.730;2023-04-09T00:37:25;25.70;;;15.65;;
27847;SDS011;15212;48.830;8.730;2023-04-09T00:39:53;25.37;;;15.65;;
27847;SDS011;15212;48.830;8.730;2023-04-09T00:42:22;28.90;;;16.50;;
27847;SDS011;15212;48.830;8.730;2023-04-09T00:44:50;27.70;;;16.07;;
27847;SDS011;15212;48.830;8.730;2023-04-09T00:47:19;27.70;;;15.55;;
27847;SDS011;15212;48.830;8.730;2023-04-09T00:49:47;30.77;;;16.12;;
27847;SDS011;15212;48.830;8.730;2023-04-09T00:52:15;27.15;;;16.00;;
27847;SDS011;15212;48.830;8.730;2023-04-09T00:54:44;28.95;;;16.90;;
27847;SDS011;15212;48.830;8.730;2023-04-09T00:57:13;27.45;;;15.50;;
27847;SDS011;15212;48.830;8.730;2023-04-09T00:59:42;28.57;;;15.50;;
27847;SDS011;15212;48.830;8.730;2023-04-09T01:02:11;28.02;;;15.70;;
27847;SDS011;15212;48.830;8.730;2023-04-09T01:04:40;25.12;;;14.93;;
27847;SDS011;15212;48.830;8.730;2023-04-09T01:07:16;28.17;;;14.45;;
27847;SDS011;15212;48.830;8.730;2023-04-09T01:10:03;25.05;;;13.80;;
27847;SDS011;15212;48.830;8.730;2023-04-09T01:15:49;23.40;;;13.83;;
27847;SDS011;15212;48.830;8.730;2023-04-09T01:18:35;22.90;;;12.88;;
27847;SDS011;15212;48.830;8.730;2023-04-09T01:21:11;27.70;;;14.37;;
27847;SDS011;15212;48.830;8.730;2023-04-09T01:27:07;28.17;;;15.10;;
27847;SDS011;15212;48.830;8.730;2023-04-09T01:29:33;27.20;;;15.32;;
27847;SDS011;15212;48.830;8.730;2023-04-09T01:32:13;24.92;;;14.40;;
27847;SDS011;15212;48.830;8.730;2023-04-09T01:34:45;25.88;;;14.68;;
27847;SDS011;15212;48.830;8.730;2023-04-09T01:37:14;25.97;;;14.43;;
27847;SDS011;15212;48.830;8.730;2023-04-09T01:39:44;30.43;;;15.78;;
27847;SDS011;15212;48.830;8.730;2023-04-09T01:42:13;27.90;;;15.25;;
27847;SDS011;15212;48.830;8.730;2023-04-09T01:44:44;28.27;;;15.80;;
27847;SDS011;15212;48.830;8.730;2023-04-09T01:47:14;29.90;;;16.15;;
27847;SDS011;15212;48.830;8.730;2023-04-09T01:49:42;32.98;;;17.70;;
27847;SDS011;15212;48.830;8.730;2023-04-09T01:52:12;33.38;;;17.48;;
27847;SDS011;15212;48.830;8.730;2023-04-09T01:54:41;30.45;;;16.93;;
27847;SDS011;15212;48.830;8.730;2023-04-09T01:57:09;30.10;;;16.93;;
27847;SDS011;15212;48.830;8.730;2023-04-09T01:59:38;33.20;;;16.80;;
27847;SDS011;15212;48.830;8.730;2023-04-09T02:02:10;27.90;;;16.20;;
27847;SDS011;15212;48.830;8.730;2023-04-09T02:04:46;30.17;;;17.12;;
27847;SDS011;15212;48.830;8.730;2023-04-09T02:07:30;33.10;;;17.15;;
27847;SDS011;15212;48.830;8.730;2023-04-09T02:10:07;32.28;;;16.65;;
27847;SDS011;15212;48.830;8.730;2023-04-09T02:12:37;32.55;;;17.52;;
27847;SDS011;15212;48.830;8.730;2023-04-09T02:15:08;33.73;;;16.95;;
27847;SDS011;15212;48.830;8.730;2023-04-09T02:17:37;31.87;;;16.55;;
27847;SDS011;15212;48.830;8.730;2023-04-09T02:20:06;28.70;;;16.97;;
27847;SDS011;15212;48.830;8.730;2023-04-09T02:22:36;31.73;;;17.60;;
27847;SDS011;15212;48.830;8.730;2023-04-09T02:25:05;31.17;;;17.45;;
27847;SDS011;15212;48.830;8.730;2023-04-09T02:27:34;30.50;;;17.48;;
27847;SDS011;15212;48.830;8.730;2023-04-09T02:30:02;34.03;;;17.27;;
27847;SDS011;15212;48.830;8.730;2023-04-09T02:32:31;30.88;;;16.55;;
27847;SDS011;15212;48.830;8.730;2023-04-09T02:35:00;29.98;;;16.55;;
27847;SDS011;15212;48.830;8.730;2023-04-09T02:37:29;32.88;;;16.35;;
27847;SDS011;15212;48.830;8.730;2023-04-09T02:39:57;28.23;;;15.95;;
27847;SDS011;15212;48.830;8.730;2023-04-09T02:42:25;35.35;;;18.00;;
27847;SDS011;15212;48.830;8.730;2023-04-09T02:44:54;35.15;;;18.80;;
27847;SDS011;15212;48.830;8.730;2023-04-09T02:47:22;30.08;;;17.10;;
27847;SDS011;15212;48.830;8.730;2023-04-09T02:49:52;33.10;;;17.90;;
27847;SDS011;15212;48.830;8.730;2023-04-09T02:52:20;33.90;;;17.50;;
27847;SDS011;15212;48.830;8.730;2023-04-09T02:54:49;33.35;;;17.37;;
27847;SDS011;15212;48.830;8.730;2023-04-09T02:57:19;30.62;;;15.93;;
27847;SDS011;15212;48.830;8.730;2023-04-09T02:59:48;32.45;;;17.10;;
27847;SDS011;15212;48.830;8.730;2023-04-09T03:02:16;39.60;;;20.08;;
27847;SDS011;15212;48.830;8.730;2023-04-09T03:04:44;38.83;;;19.62;;
27847;SDS011;15212;48.830;8.730;2023-04-09T03:07:13;37.53;;;19.57;;
27847;SDS011;15212;48.830;8.730;2023-04-09T03:09:41;39.25;;;19.98;;
27847;SDS011;15212;48.830;8.730;2023-04-09T03:12:09;41.90;;;20.82;;
27847;SDS011;15212;48.830;8.730;2023-04-09T03:14:38;38.80;;;20.12;;
27847;SDS011;15212;48.830;8.730;2023-04-09T03:17:07;39.48;;;19.30;;
27847;SDS011;15212;48.830;8.730;2023-04-09T03:19:35;34.55;;;17.20;;
27847;SDS011;15212;48.830;8.730;2023-04-09T03:22:03;32.33;;;17.25;;
27847;SDS011;15212;48.830;8.730;2023-04-09T03:24:32;35.48;;;18.90;;
27847;SDS011;15212;48.830;8.730;2023-04-09T03:27:00;36.05;;;18.82;;
27847;SDS011;15212;48.830;8.730;2023-04-09T03:29:29;38.02;;;19.73;;
27847;SDS011;15212;48.830;8.730;2023-04-09T03:31:57;38.10;;;20.40;;
27847;SDS011;15212;48.830;8.730;2023-04-09T03:34:25;38.92;;;20.27;;
27847;SDS011;15212;48.830;8.730;2023-04-09T03:36:54;43.78;;;21.23;;
27847;SDS011;15212;48.830;8.730;2023-04-09T03:39:22;38.17;;;19.77;;
27847;SDS011;15212;48.830;8.730;2023-04-09T03:41:51;38.65;;;19.95;;
27847;SDS011;15212;48.830;8.730;2023-04-09T03:44:21;38.83;;;20.50;;
27847;SDS011;15212;48.830;8.730;2023-04-09T03:46:50;41.18;;;19.50;;
27847;SDS011;15212;48.830;8.730;2023-04-09T03:49:18;34.55;;;19.48;;
27847;SDS011;15212;48.830;8.730;2023-04-09T03:51:46;35.23;;;19.20;;
27847;SDS011;15212;48.830;8.730;2023-04-09T03:54:15;40.88;;;20.72;;
27847;SDS011;15212;48.830;8.730;2023-04-09T03:56:43;39.20;;;19.60;;
27847;SDS011;15212;48.830;8.730;2023-04-09T03:59:12;37.75;;;20.08;;
27847;SDS011;15212;48.830;8.730;2023-04-09T04:01:40;36.60;;;19.32;;
27847;SDS011;15212;48.830;8.730;2023-04-09T04:04:09;33.83;;;18.30;;
27847;SDS011;15212;48.830;8.730;2023-04-09T04:06:37;33.53;;;18.12;;
27847;SDS011;15212;48.830;8.730;2023-04-09T04:09:05;32.73;;;17.62;;
27847;SDS011;15212;48.830;8.730;2023-04-09T04:11:34;33.85;;;18.07;;
27847;SDS011;15212;48.830;8.730;2023-04-09T04:14:02;32.40;;;18.02;;
27847;SDS011;15212;48.830;8.730;2023-04-09T04:16:31;37.28;;;19.70;;
27847;SDS011;15212;48.830;8.730;2023-04-09T04:18:59;38.02;;;19.62;;
27847;SDS011;15212;48.830;8.730;2023-04-09T04:21:27;33.45;;;18.15;;
27847;SDS011;15212;48.830;8.730;2023-04-09T04:23:56;37.40;;;19.45;;
27847;SDS011;15212;48.830;8.730;2023-04-09T04:26:24;38.95;;;20.02;;
27847;SDS011;15212;48.830;8.730;2023-04-09T04:28:53;40.58;;;21.30;;
27847;SDS011;15212;48.830;8.730;2023-04-09T04:31:21;37.83;;;21.10;;
27847;SDS011;15212;48.830;8.730;2023-04-09T04:33:49;42.38;;;20.92;;
27847;SDS011;15212;48.830;8.730;2023-04-09T04:36:18;39.33;;;20.50;;
27847;SDS011;15212;48.830;8.730;2023-04-09T04:38:46;41.77;;;21.15;;
27847;SDS011;15212;48.830;8.730;2023-04-09T04:41:14;39.20;;;21.25;;
27847;SDS011;15212;48.830;8.730;2023-04-09T04:43:43;40.65;;;20.08;;
27847;SDS011;15212;48.830;8.730;2023-04-09T04:46:13;40.45;;;20.70;;
27847;SDS011;15212;48.830;8.730;2023-04-09T04:48:41;43.73;;;20.77;;
27847;SDS011;15212;48.830;8.730;2023-04-09T04:51:09;45.12;;;21.40;;
27847;SDS011;15212;48.830;8.730;2023-04-09T04:53:38;36.73;;;19.05;;
27847;SDS011;15212;48.830;8.730;2023-04-09T04:56:11;42.55;;;21.05;;
27847;SDS011;15212;48.830;8.730;2023-04-09T04:58:40;42.10;;;20.35;;
27847;SDS011;15212;48.830;8.730;2023-04-09T05:01:09;41.73;;;21.33;;
27847;SDS011;15212;48.830;8.730;2023-04-09T05:03:38;40.70;;;21.97;;
27847;SDS011;15212;48.830;8.730;2023-04-09T05:06:06;39.45;;;19.82;;
27847;SDS011;15212;48.830;8.730;2023-04-09T05:08:35;41.25;;;20.00;;
27847;SDS011;15212;48.830;8.730;2023-04-09T05:11:03;38.63;;;20.05;;
27847;SDS011;15212;48.830;8.730;2023-04-09T05:13:31;44.90;;;22.00;;
27847;SDS011;15212;48.830;8.730;2023-04-09T05:16:00;42.17;;;21.75;;
27847;SDS011;15212;48.830;8.730;2023-04-09T05:18:28;37.67;;;20.52;;
27847;SDS011;15212;48.830;8.730;2023-04-09T05:20:57;44.58;;;22.05;;
27847;SDS011;15212;48.830;8.730;2023-04-09T05:23:25;43.10;;;22.32;;
27847;SDS011;15212;48.830;8.730;2023-04-09T05:25:53;40.50;;;21.40;;
27847;SDS011;15212;48.830;8.730;2023-04-09T05:28:22;44.83;;;21.82;;
27847;SDS011;15212;48.830;8.730;2023-04-09T05:30:50;43.70;;;21.75;;
27847;SDS011;15212;48.830;8.730;2023-04-09T05:33:19;44.90;;;22.65;;
27847;SDS011;15212;48.830;8.730;2023-04-09T05:35:47;37.33;;;20.88;;
27847;SDS011;15212;48.830;8.730;2023-04-09T05:38:15;39.65;;;21.33;;
27847;SDS011;15212;48.830;8.730;2023-04-09T05:40:44;38.63;;;20.10;;
27847;SDS011;15212;48.830;8.730;2023-04-09T05:43:13;38.20;;;20.20;;
27847;SDS011;15212;48.830;8.730;2023-04-09T05:45:42;34.38;;;18.82;;
27847;SDS011;15212;48.830;8.730;2023-04-09T05:48:10;34.03;;;18.85;;
27847;SDS011;15212;48.830;8.730;2023-04-09T05:50:38;36.83;;;20.02;;
27847;SDS011;15212;48.830;8.730;2023-04-09T05:53:07;35.70;;;18.70;;
27847;SDS011;15212;48.830;8.730;2023-04-09T05:55:35;34.63;;;19.42;;
27847;SDS011;15212;48.830;8.730;2023-04-09T05:58:03;37.03;;;19.23;;
27847;SDS011;15212;48.830;8.730;2023-04-09T06:00:32;37.63;;;18.77;;
27847;SDS011;15212;48.830;8.730;2023-04-09T06:03:03;36.35;;;17.98;;
27847;SDS011;15212;48.830;8.730;2023-04-09T06:05:32;32.85;;;18.60;;
27847;SDS011;15212;48.830;8.730;2023-04-09T06:08:00;32.70;;;17.48;;
27847;SDS011;15212;48.830;8.730;2023-04-09T06:10:31;30.35;;;18.07;;
27847;SDS011;15212;48.830;8.730;2023-04-09T06:12:59;28.57;;;16.07;;
27847;SDS011;15212;48.830;8.730;2023-04-09T06:15:28;28.07;;;16.27;;
27847;SDS011;15212;48.830;8.730;2023-04-09T06:17:56;28.55;;;15.95;;
27847;SDS011;15212;48.830;8.730;2023-04-09T06:20:24;25.52;;;14.73;;
27847;SDS011;15212;48.830;8.730;2023-04-09T06:22:53;24.50;;;15.23;;
27847;SDS011;15212;48.830;8.730;2023-04-09T06:25:21;23.35;;;14.65;;
27847;SDS011;15212;48.830;8.730;2023-04-09T06:27:49;21.60;;;13.98;;
27847;SDS011;15212;48.830;8.730;2023-04-09T06:30:18;20.15;;;14.38;;
27847;SDS011;15212;48.830;8.730;2023-04-09T06:32:47;21.40;;;14.45;;
27847;SDS011;15212;48.830;8.730;2023-04-09T06:35:16;23.52;;;14.53;;
27847;SDS011;15212;48.830;8.730;2023-04-09T06:37:45;25.37;;;15.83;;
27847;SDS011;15212;48.830;8.730;2023-04-09T06:40:13;24.07;;;15.38;;
27847;SDS011;15212;48.830;8.730;2023-04-09T06:42:42;24.98;;;14.95;;
27847;SDS011;15212;48.830;8.730;2023-04-09T06:45:10;25.77;;;15.68;;
27847;SDS011;15212;48.830;8.730;2023-04-09T06:47:38;27.70;;;16.27;;
27847;SDS011;15212;48.830;8.730;2023-04-09T06:50:07;24.80;;;15.50;;
27847;SDS011;15212;48.830;8.730;2023-04-09T06:52:35;28.10;;;16.40;;
27847;SDS011;15212;48.830;8.730;2023-04-09T06:55:04;28.15;;;16.97;;
27847;SDS011;15212;48.830;8.730;2023-04-09T06:57:33;33.88;;;15.55;;
27847;SDS011;15212;48.830;8.730;2023-04-09T07:00:02;29.90;;;17.02;;
27847;SDS011;15212;48.830;8.730;2023-04-09T07:02:32;29.48;;;16.50;;
27847;SDS011;15212;48.830;8.730;2023-04-09T07:05:02;27.37;;;16.40;;
27847;SDS011;15212;48.830;8.730;2023-04-09T07:07:31;30.75;;;16.90;;
27847;SDS011;15212;48.830;8.730;2023-04-09T07:09:59;28.35;;;16.87;;
27847;SDS011;15212;48.830;8.730;2023-04-09T07:12:31;27.45;;;16.42;;
27847;SDS011;15212;48.830;8.730;2023-04-09T07:15:01;27.98;;;16.50;;
27847;SDS011;15212;48.830;8.730;2023-04-09T07:17:33;31.95;;;16.57;;
27847;SDS011;15212;48.830;8.730;2023-04-09T07:20:02;28.40;;;17.20;;
27847;SDS011;15212;48.830;8.730;2023-04-09T07:22:31;32.75;;;18.12;;
27847;SDS011;15212;48.830;8.730;2023-04-09T07:24:59;32.75;;;17.02;;
27847;SDS011;15212;48.830;8.730;2023-04-09T07:27:28;27.98;;;16.67;;
27847;SDS011;15212;48.830;8.730;2023-04-09T07:29:57;35.52;;;18.15;;
27847;SDS011;15212;48.830;8.730;2023-04-09T07:32:26;30.10;;;16.82;;
27847;SDS011;15212;48.830;8.730;2023-04-09T07:34:55;32.38;;;17.27;;
27847;SDS011;15212;48.830;8.730;2023-04-09T07:37:24;28.25;;;16.12;;
27847;SDS011;15212;48.830;8.730;2023-04-09T07:39:52;30.80;;;17.30;;
27847;SDS011;15212;48.830;8.730;2023-04-09T07:42:21;31.62;;;16.97;;
27847;SDS011;15212;48.830;8.730;2023-04-09T07:44:50;29.07;;;16.82;;
27847;SDS011;15212;48.830;8.730;2023-04-09T07:47:20;29.98;;;16.15;;
27847;SDS011;15212;48.830;8.730;2023-04-09T07:49:49;30.30;;;16.12;;
27847;SDS011;15212;48.830;8.730;2023-04-09T07:52:17;25.57;;;14.55;;
27847;SDS011;15212;48.830;8.730;2023-04-09T07:54:46;26.85;;;14.50;;
27847;SDS011;15212;48.830;8.730;2023-04-09T07:57:14;27.70;;;14.80;;
27847;SDS011;15212;48.830;8.730;2023-04-09T07:59:43;22.90;;;13.70;;
27847;SDS011;15212;48.830;8.730;2023-04-09T08:02:11;24.55;;;15.05;;
27847;SDS011;15212;48.830;8.730;2023-04-09T08:04:40;23.27;;;13.58;;
27847;SDS011;15212;48.830;8.730;2023-04-09T08:07:08;26.20;;;13.68;;
27847;SDS011;15212;48.830;8.730;2023-04-09T08:09:37;20.27;;;12.10;;
27847;SDS011;15212;48.830;8.730;2023-04-09T08:12:05;22.02;;;12.53;;
27847;SDS011;15212;48.830;8.730;2023-04-09T08:14:36;20.95;;;11.97;;
27847;SDS011;15212;48.830;8.730;2023-04-09T08:17:04;20.68;;;12.23;;
27847;SDS011;15212;48.830;8.730;2023-04-09T08:19:32;19.87;;;11.63;;
27847;SDS011;15212;48.830;8.730;2023-04-09T08:22:00;22.40;;;11.20;;
27847;SDS011;15212;48.830;8.730;2023-04-09T08:24:29;18.20;;;11.10;;
27847;SDS011;15212;48.830;8.730;2023-04-09T08:26:57;15.03;;;9.78;;
27847;SDS011;15212;48.830;8.730;2023-04-09T08:29:26;17.10;;;10.18;;
27847;SDS011;15212;48.830;8.730;2023-04-09T08:31:56;16.73;;;10.25;;
27847;SDS011;15212;48.830;8.730;2023-04-09T08:34:25;19.60;;;11.30;;
27847;SDS011;15212;48.830;8.730;2023-04-09T08:36:53;15.35;;;9.60;;
27847;SDS011;15212;48.830;8.730;2023-04-09T08:39:22;16.67;;;10.50;;
27847;SDS011;15212;48.830;8.730;2023-04-09T08:41:50;16.93;;;10.45;;
27847;SDS011;15212;48.830;8.730;2023-04-09T08:44:20;13.93;;;8.73;;
27847;SDS011;15212;48.830;8.730;2023-04-09T08:46:54;18.87;;;10.63;;
27847;SDS011;15212;48.830;8.730;2023-04-09T08:49:23;17.32;;;8.60;;
27847;SDS011;15212;48.830;8.730;2023-04-09T08:51:52;13.08;;;8.10;;
27847;SDS011;15212;48.830;8.730;2023-04-09T08:54:20;12.78;;;7.22;;
27847;SDS011;15212;48.830;8.730;2023-04-09T08:56:50;14.87;;;9.08;;
27847;SDS011;15212;48.830;8.730;2023-04-09T08:59:18;14.23;;;9.03;;
27847;SDS011;15212;48.830;8.730;2023-04-09T09:01:47;12.95;;;7.72;;
27847;SDS011;15212;48.830;8.730;2023-04-09T09:04:17;11.73;;;7.35;;
27847;SDS011;15212;48.830;8.730;2023-04-09T09:06:45;13.13;;;7.47;;
27847;SDS011;15212;48.830;8.730;2023-04-09T09:09:14;11.75;;;7.15;;
27847;SDS011;15212;48.830;8.730;2023-04-09T09:11:44;12.23;;;7.95;;
27847;SDS011;15212;48.830;8.730;2023-04-09T09:14:16;12.47;;;7.47;;
27847;SDS011;15212;48.830;8.730;2023-04-09T09:17:07;12.43;;;8.10;;
27847;SDS011;15212;48.830;8.730;2023-04-09T09:21:56;12.80;;;8.05;;
27847;SDS011;15212;48.830;8.730;2023-04-09T09:24:27;11.30;;;7.25;;
27847;SDS011;15212;48.830;8.730;2023-04-09T09:26:57;12.80;;;7.30;;
27847;SDS011;15212;48.830;8.730;2023-04-09T09:29:26;11.43;;;7.12;;
27847;SDS011;15212;48.830;8.730;2023-04-09T09:31:55;12.03;;;6.90;;
27847;SDS011;15212;48.830;8.730;2023-04-09T09:34:23;11.30;;;7.00;;
27847;SDS011;15212;48.830;8.730;2023-04-09T09:36:52;11.65;;;6.47;;
27847;SDS011;15212;48.830;8.730;2023-04-09T09:39:20;9.80;;;6.03;;
27847;SDS011;15212;48.830;8.730;2023-04-09T09:41:49;10.55;;;6.53;;
27847;SDS011;15212;48.830;8.730;2023-04-09T09:44:29;8.38;;;5.28;;
27847;SDS011;15212;48.830;8.730;2023-04-09T09:46:59;7.17;;;4.80;;
27847;SDS011;15212;48.830;8.730;2023-04-09T09:49:30;9.65;;;5.53;;
27847;SDS011;15212;48.830;8.730;2023-04-09T09:51:59;7.17;;;4.95;;
27847;SDS011;15212;48.830;8.730;2023-04-09T09:54:31;8.08;;;5.00;;
27847;SDS011;15212;48.830;8.730;2023-04-09T09:57:03;7.60;;;4.65;;
27847;SDS011;15212;48.830;8.730;2023-04-09T09:59:36;5.92;;;4.00;;
27847;SDS011;15212;48.830;8.730;2023-04-09T10:02:05;6.67;;;4.47;;
27847;SDS011;15212;48.830;8.730;2023-04-09T10:04:37;6.75;;;4.33;;
27847;SDS011;15212;48.830;8.730;2023-04-09T10:07:06;7.05;;;4.72;;
27847;SDS011;15212;48.830;8.730;2023-04-09T10:09:36;6.20;;;4.20;;
27847;SDS011;15212;48.830;8.730;2023-04-09T10:12:08;8.05;;;4.58;;
27847;SDS011;15212;48.830;8.730;2023-04-09T10:14:37;7.97;;;4.62;;
27847;SDS011;15212;48.830;8.730;2023-04-09T10:17:06;6.25;;;4.20;;
27847;SDS011;15212;48.830;8.730;2023-04-09T10:19:37;7.20;;;4.62;;
27847;SDS011;15212;48.830;8.730;2023-04-09T10:22:15;5.97;;;4.08;;
27847;SDS011;15212;48.830;8.730;2023-04-09T10:24:41;7.12;;;4.15;;
27847;SDS011;15212;48.830;8.730;2023-04-09T10:27:12;8.38;;;4.80;;
27847;SDS011;15212;48.830;8.730;2023-04-09T10:29:43;9.45;;;4.60;;
27847;SDS011;15212;48.830;8.730;2023-04-09T10:32:18;8.00;;;5.05;;
27847;SDS011;15212;48.830;8.730;2023-04-09T10:34:49;7.12;;;4.78;;
27847;SDS011;15212;48.830;8.730;2023-04-09T10:37:24;7.78;;;4.90;;
27847;SDS011;15212;48.830;8.730;2023-04-09T10:39:51;6.70;;;4.47;;
27847;SDS011;15212;48.830;8.730;2023-04-09T10:42:36;7.42;;;4.55;;
27847;SDS011;15212;48.830;8.730;2023-04-09T10:45:10;7.22;;;4.30;;
27847;SDS011;15212;48.830;8.730;2023-04-09T10:47:42;5.92;;;4.10;;
27847;SDS011;15212;48.830;8.730;2023-04-09T10:50:15;6.50;;;4.25;;
27847;SDS011;15212;48.830;8.730;2023-04-09T10:52:51;6.78;;;4.42;;
27847;SDS011;15212;48.830;8.730;2023-04-09T10:55:33;6.85;;;4.17;;
27847;SDS011;15212;48.830;8.730;2023-04-09T10:58:06;7.37;;;4.65;;
27847;SDS011;15212;48.830;8.730;2023-04-09T11:00:37;5.87;;;3.90;;
27847;SDS011;15212;48.830;8.730;2023-04-09T11:03:27;5.95;;;3.80;;
27847;SDS011;15212;48.830;8.730;2023-04-09T11:06:17;5.90;;;3.83;;
27847;SDS011;15212;48.830;8.730;2023-04-09T11:08:49;5.90;;;3.60;;
27847;SDS011;15212;48.830;8.730;2023-04-09T11:11:17;4.47;;;2.90;;
27847;SDS011;15212;48.830;8.730;2023-04-09T11:13:49;6.45;;;3.60;;
27847;SDS011;15212;48.830;8.730;2023-04-09T11:16:17;6.12;;;4.03;;
27847;SDS011;15212;48.830;8.730;2023-04-09T11:18:46;6.75;;;4.35;;
27847;SDS011;15212;48.830;8.730;2023-04-09T11:21:16;7.22;;;4.50;;
27847;SDS011;15212;48.830;8.730;2023-04-09T11:23:50;5.30;;;4.00;;
27847;SDS011;15212;48.830;8.730;2023-04-09T11:26:34;5.35;;;3.80;;
27847;SDS011;15212;48.830;8.730;2023-04-09T11:29:06;7.15;;;4.25;;
27847;SDS011;15212;48.830;8.730;2023-04-09T11:31:35;6.05;;;4.20;;
27847;SDS011;15212;48.830;8.730;2023-04-09T11:34:03;6.85;;;4.50;;
27847;SDS011;15212;48.830;8.730;2023-04-09T11:36:34;6.60;;;4.72;;
27847;SDS011;15212;48.830;8.730;2023-04-09T11:39:03;6.78;;;4.30;;
27847;SDS011;15212;48.830;8.730;2023-04-09T11:41:34;6.47;;;4.15;;
27847;SDS011;15212;48.830;8.730;2023-04-09T11:44:04;7.03;;;4.40;;
27847;SDS011;15212;48.830;8.730;2023-04-09T11:46:34;6.08;;;3.98;;
27847;SDS011;15212;48.830;8.730;2023-04-09T11:49:03;7.75;;;3.90;;
27847;SDS011;15212;48.830;8.730;2023-04-09T11:51:32;7.67;;;4.30;;
27847;SDS011;15212;48.830;8.730;2023-04-09T11:54:01;6.47;;;4.47;;
27847;SDS011;15212;48.830;8.730;2023-04-09T11:56:34;6.33;;;4.20;;
27847;SDS011;15212;48.830;8.730;2023-04-09T11:59:02;6.10;;;4.17;;
27847;SDS011;15212;48.830;8.730;2023-04-09T12:01:31;9.18;;;4.92;;
27847;SDS011;15212;48.830;8.730;2023-04-09T12:04:00;6.67;;;4.83;;
27847;SDS011;15212;48.830;8.730;2023-04-09T12:06:30;7.92;;;4.90;;
27847;SDS011;15212;48.830;8.730;2023-04-09T12:08:59;7.53;;;4.90;;
27847;SDS011;15212;48.830;8.730;2023-04-09T12:11:29;8.00;;;5.40;;
27847;SDS011;15212;48.830;8.730;2023-04-09T12:13:58;8.03;;;4.95;;
27847;SDS011;15212;48.830;8.730;2023-04-09T12:16:34;8.10;;;5.15;;
27847;SDS011;15212;48.830;8.730;2023-04-09T12:21:44;8.68;;;5.53;;
27847;SDS011;15212;48.830;8.730;2023-04-09T12:24:28;8.10;;;5.20;;
27847;SDS011;15212;48.830;8.730;2023-04-09T12:26:53;10.68;;;5.55;;
27847;SDS011;15212;48.830;8.730;2023-04-09T12:29:22;8.18;;;5.53;;
27847;SDS011;15212;48.830;8.730;2023-04-09T12:31:51;9.00;;;5.47;;
27847;SDS011;15212;48.830;8.730;2023-04-09T12:34:20;8.38;;;5.20;;
27847;SDS011;15212;48.830;8.730;2023-04-09T12:36:48;7.42;;;4.65;;
27847;SDS011;15212;48.830;8.730;2023-04-09T12:39:16;8.05;;;4.95;;
27847;SDS011;15212;48.830;8.730;2023-04-09T12:41:45;7.08;;;4.78;;
27847;SDS011;15212;48.830;8.730;2023-04-09T12:44:14;7.58;;;5.03;;
27847;SDS011;15212;48.830;8.730;2023-04-09T12:46:42;7.67;;;5.10;;
27847;SDS011;15212;48.830;8.730;2023-04-09T12:49:10;6.05;;;4.20;;
27847;SDS011;15212;48.830;8.730;2023-04-09T12:51:39;8.23;;;4.95;;
27847;SDS011;15212;48.830;8.730;2023-04-09T12:54:07;7.15;;;4.62;;
27847;SDS011;15212;48.830;8.730;2023-04-09T12:56:36;6.90;;;4.40;;
27847;SDS011;15212;48.830;8.730;2023-04-09T12:59:04;7.37;;;4.75;;
27847;SDS011;15212;48.830;8.730;2023-04-09T13:01:32;8.10;;;5.05;;
27847;SDS011;15212;48.830;8.730;2023-04-09T13:04:01;7.35;;;5.20;;
27847;SDS011;15212;48.830;8.730;2023-04-09T13:06:29;5.70;;;4.17;;
27847;SDS011;15212;48.830;8.730;2023-04-09T13:08:58;9.20;;;4.70;;
27847;SDS011;15212;48.830;8.730;2023-04-09T13:11:26;8.05;;;5.15;;
27847;SDS011;15212;48.830;8.730;2023-04-09T13:13:54;6.70;;;4.60;;
27847;SDS011;15212;48.830;8.730;2023-04-09T13:16:23;9.28;;;4.85;;
27847;SDS011;15212;48.830;8.730;2023-04-09T13:18:51;6.72;;;4.65;;
27847;SDS011;15212;48.830;8.730;2023-04-09T13:21:19;6.62;;;4.33;;
27847;SDS011;15212;48.830;8.730;2023-04-09T13:23:48;6.40;;;4.70;;
27847;SDS011;15212;48.830;8.730;2023-04-09T13:26:16;6.85;;;4.50;;
27847;SDS011;15212;48.830;8.730;2023-04-09T13:28:45;7.78;;;5.10;;
27847;SDS011;15212;48.830;8.730;2023-04-09T13:31:13;7.65;;;4.80;;
27847;SDS011;15212;48.830;8.730;2023-04-09T13:33:42;6.80;;;4.67;;
27847;SDS011;15212;48.830;8.730;2023-04-09T13:36:10;6.17;;;4.35;;
27847;SDS011;15212;48.830;8.730;2023-04-09T13:38:39;7.62;;;5.12;;
27847;SDS011;15212;48.830;8.730;2023-04-09T13:41:07;9.15;;;4.85;;
27847;SDS011;15212;48.830;8.730;2023-04-09T13:43:35;7.85;;;5.08;;
27847;SDS011;15212;48.830;8.730;2023-04-09T13:46:04;7.70;;;4.90;;
27847;SDS011;15212;48.830;8.730;2023-04-09T13:48:32;6.70;;;4.53;;
27847;SDS011;15212;48.830;8.730;2023-04-09T13:51:01;8.45;;;4.67;;
27847;SDS011;15212;48.830;8.730;2023-04-09T13:53:29;8.88;;;5.72;;
27847;SDS011;15212;48.830;8.730;2023-04-09T13:55:57;7.55;;;4.95;;
27847;SDS011;15212;48.830;8.730;2023-04-09T13:58:26;6.17;;;4.45;;
27847;SDS011;15212;48.830;8.730;2023-04-09T14:00:55;7.50;;;5.08;;
27847;SDS011;15212;48.830;8.730;2023-04-09T14:03:24;6.35;;;4.28;;
27847;SDS011;15212;48.830;8.730;2023-04-09T14:05:52;7.53;;;4.67;;
27847;SDS011;15212;48.830;8.730;2023-04-09T14:08:21;7.28;;;5.10;;
27847;SDS011;15212;48.830;8.730;2023-04-09T14:10:49;7.45;;;4.58;;
27847;SDS011;15212;48.830;8.730;2023-04-09T14:13:18;7.87;;;5.28;;
27847;SDS011;15212;48.830;8.730;2023-04-09T14:15:46;6.97;;;4.62;;
27847;SDS011;15212;48.830;8.730;2023-04-09T14:18:15;6.92;;;4.58;;
27847;SDS011;15212;48.830;8.730;2023-04-09T14:20:43;7.47;;;4.75;;
27847;SDS011;15212;48.830;8.730;2023-04-09T14:23:12;7.35;;;4.35;;
27847;SDS011;15212;48.830;8.730;2023-04-09T14:25:40;6.45;;;4.03;;
27847;SDS011;15212;48.830;8.730;2023-04-09T14:28:09;6.42;;;4.10;;
27847;SDS011;15212;48.830;8.730;2023-04-09T14:30:38;5.60;;;3.90;;
27847;SDS011;15212;48.830;8.730;2023-04-09T14:33:06;6.92;;;4.50;;
27847;SDS011;15212;48.830;8.730;2023-04-09T14:35:35;6.40;;;4.40;;
27847;SDS011;15212;48.830;8.730;2023-04-09T14:38:03;8.63;;;4.70;;
27847;SDS011;15212;48.830;8.730;2023-04-09T14:40:32;6.65;;;4.28;;
27847;SDS011;15212;48.830;8.730;2023-04-09T14:43:01;6.12;;;3.85;;
27847;SDS011;15212;48.830;8.730;2023-04-09T14:45:30;7.20;;;4.40;;
27847;SDS011;15212;48.830;8.730;2023-04-09T14:47:58;7.20;;;4.28;;
27847;SDS011;15212;48.830;8.730;2023-04-09T14:50:29;6.65;;;4.28;;
27847;SDS011;15212;48.830;8.730;2023-04-09T14:52:59;6.97;;;4.62;;
27847;SDS011;15212;48.830;8.730;2023-04-09T14:55:28;6.55;;;4.50;;